createdAt,value
2023-12-28T00:02:17.748Z,9.60
2023-12-28T00:04:44.616Z,9.60
2023-12-28T00:07:11.475Z,9.60
2023-12-28T00:09:38.439Z,9.60
2023-12-28T00:12:06.218Z,9.60
2023-12-28T00:14:33.057Z,9.60
2023-12-28T00:16:59.881Z,9.70
2023-12-28T00:19:26.825Z,9.70
2023-12-28T00:21:53.868Z,9.60
2023-12-28T00:24:22.720Z,9.70
2023-12-28T00:26:49.856Z,9.70
2023-12-28T00:29:16.754Z,9.70
2023-12-28T00:31:43.696Z,9.70
2023-12-28T00:34:10.756Z,9.80
2023-12-28T00:36:37.846Z,9.80
2023-12-28T00:39:04.763Z,9.80
2023-12-28T00:41:31.649Z,9.80
2023-12-28T00:43:58.524Z,9.80
2023-12-28T00:46:25.680Z,9.80
2023-12-28T00:48:52.721Z,9.80
2023-12-28T00:51:19.667Z,9.80
2023-12-28T00:53:46.475Z,9.80
2023-12-28T00:56:13.456Z,9.90
2023-12-28T00:58:44.935Z,9.90
2023-12-28T01:01:12.308Z,10.00
2023-12-28T01:03:39.394Z,10.00
2023-12-28T01:06:06.984Z,9.90
2023-12-28T01:08:36.571Z,9.90
2023-12-28T01:11:03.810Z,9.90
2023-12-28T01:13:32.205Z,9.80
2023-12-28T01:15:59.363Z,9.90
2023-12-28T01:18:26.514Z,9.90
2023-12-28T01:20:53.584Z,9.90
2023-12-28T01:23:20.440Z,9.90
2023-12-28T01:25:47.850Z,9.90
2023-12-28T01:28:14.713Z,9.90
2023-12-28T01:30:41.752Z,9.80
2023-12-28T01:33:08.685Z,9.80
2023-12-28T01:35:35.554Z,9.80
2023-12-28T01:38:04.342Z,9.80
2023-12-28T01:40:31.159Z,9.70
2023-12-28T01:42:58.046Z,9.80
2023-12-28T01:45:24.996Z,9.70
2023-12-28T01:47:53.768Z,9.80
2023-12-28T01:50:22.883Z,9.70
2023-12-28T01:52:50.908Z,9.70
2023-12-28T01:55:18.720Z,9.70
2023-12-28T01:57:46.685Z,9.70
2023-12-28T02:00:14.135Z,9.70
2023-12-28T02:02:42.996Z,9.70
2023-12-28T02:05:13.608Z,9.70
2023-12-28T02:07:40.545Z,9.70
2023-12-28T02:10:08.534Z,9.70
2023-12-28T02:12:35.641Z,9.70
2023-12-28T02:15:04.023Z,9.70
2023-12-28T02:17:44.968Z,9.80
2023-12-28T02:20:13.892Z,9.80
2023-12-28T02:22:41.709Z,9.70
2023-12-28T02:25:15.120Z,9.80
2023-12-28T02:27:42.275Z,9.70
2023-12-28T02:30:11.525Z,9.80
2023-12-28T02:33:19.635Z,9.80
2023-12-28T02:35:56.224Z,9.80
2023-12-28T02:38:25.493Z,9.80
2023-12-28T02:40:53.560Z,9.80
2023-12-28T02:43:20.834Z,9.90
2023-12-28T02:45:47.717Z,9.90
2023-12-28T02:48:14.971Z,9.80
2023-12-28T02:50:41.990Z,9.80
2023-12-28T02:53:08.806Z,9.80
2023-12-28T02:55:35.651Z,9.80
2023-12-28T02:58:03.175Z,9.80
2023-12-28T03:00:31.009Z,9.70
2023-12-28T03:02:58.297Z,9.80
2023-12-28T03:05:25.277Z,9.80
2023-12-28T03:07:52.245Z,9.80
2023-12-28T03:10:19.144Z,9.80
2023-12-28T03:12:46.094Z,9.80
2023-12-28T03:15:14.061Z,9.80
2023-12-28T03:17:41.334Z,9.80
2023-12-28T03:20:08.962Z,9.80
2023-12-28T03:22:36.186Z,9.90
2023-12-28T03:25:03.624Z,9.90
2023-12-28T03:27:30.521Z,9.90
2023-12-28T03:29:57.431Z,9.90
2023-12-28T03:32:24.434Z,10.00
2023-12-28T03:34:51.405Z,10.00
2023-12-28T03:37:18.375Z,10.00
2023-12-28T03:39:47.320Z,9.90
2023-12-28T03:42:15.842Z,10.00
2023-12-28T03:44:42.883Z,10.00
2023-12-28T03:47:09.759Z,10.00
2023-12-28T03:49:36.697Z,10.00
2023-12-28T03:52:03.964Z,10.00
2023-12-28T03:54:30.878Z,10.10
2023-12-28T03:56:58.525Z,10.00
2023-12-28T03:59:25.476Z,10.00
2023-12-28T04:01:52.349Z,10.00
2023-12-28T04:04:19.409Z,10.00
2023-12-28T04:06:46.266Z,10.00
2023-12-28T04:09:13.912Z,10.00
2023-12-28T04:11:40.864Z,10.00
2023-12-28T04:14:07.733Z,10.00
2023-12-28T04:16:34.975Z,10.00
2023-12-28T04:19:01.861Z,10.00
2023-12-28T04:21:28.809Z,10.00
2023-12-28T04:23:55.672Z,10.00
2023-12-28T04:26:22.645Z,10.00
2023-12-28T04:28:49.510Z,10.00
2023-12-28T04:31:16.558Z,10.00
2023-12-28T04:33:43.580Z,10.00
2023-12-28T04:36:10.370Z,10.00
2023-12-28T04:38:39.846Z,10.00
2023-12-28T04:41:06.772Z,10.00
2023-12-28T04:43:33.563Z,10.10
2023-12-28T04:46:06.794Z,10.10
2023-12-28T04:48:34.133Z,10.10
2023-12-28T04:51:04.002Z,10.00
2023-12-28T04:53:31.104Z,10.00
2023-12-28T04:55:57.932Z,10.00
2023-12-28T04:58:24.765Z,10.10
2023-12-28T05:00:51.755Z,10.10
2023-12-28T05:03:19.023Z,10.10
2023-12-28T05:05:46.221Z,10.10
2023-12-28T05:08:13.112Z,10.10
2023-12-28T05:10:40.041Z,10.10
2023-12-28T05:13:07.095Z,10.10
2023-12-28T05:15:34.815Z,10.10
2023-12-28T05:18:02.148Z,10.10
2023-12-28T05:20:29.730Z,10.10
2023-12-28T05:22:56.551Z,10.20
2023-12-28T05:25:23.538Z,10.10
2023-12-28T05:27:50.462Z,10.20
2023-12-28T05:30:17.535Z,10.20
2023-12-28T05:32:44.552Z,10.20
2023-12-28T05:35:11.488Z,10.20
2023-12-28T05:37:38.392Z,10.20
2023-12-28T05:40:05.741Z,10.20
2023-12-28T05:42:32.621Z,10.20
2023-12-28T05:44:59.489Z,10.20
2023-12-28T05:47:26.413Z,10.20
2023-12-28T05:49:53.735Z,10.20
2023-12-28T05:52:21.156Z,10.20
2023-12-28T05:54:49.384Z,10.20
2023-12-28T05:57:16.733Z,10.20
2023-12-28T05:59:43.823Z,10.30
2023-12-28T06:02:10.805Z,10.30
2023-12-28T06:04:38.252Z,10.30
2023-12-28T06:07:06.070Z,10.20
2023-12-28T06:09:33.430Z,10.20
2023-12-28T06:12:00.702Z,10.30
2023-12-28T06:14:27.976Z,10.40
2023-12-28T06:16:54.873Z,10.30
2023-12-28T06:19:22.045Z,10.30
2023-12-28T06:21:52.397Z,10.30
2023-12-28T06:24:19.350Z,10.30
2023-12-28T06:26:46.411Z,10.20
2023-12-28T06:29:13.533Z,10.30
2023-12-28T06:31:41.001Z,10.30
2023-12-28T06:34:08.549Z,10.40
2023-12-28T06:36:36.051Z,10.40
2023-12-28T06:39:03.179Z,10.30
2023-12-28T06:41:30.034Z,10.30
2023-12-28T06:43:56.859Z,10.30
2023-12-28T06:46:23.917Z,10.30
2023-12-28T06:48:51.013Z,10.30
2023-12-28T06:51:22.307Z,10.30
2023-12-28T06:53:50.229Z,10.30
2023-12-28T06:56:18.186Z,10.30
2023-12-28T06:58:45.124Z,10.30
2023-12-28T07:01:13.150Z,10.30
2023-12-28T07:03:41.225Z,10.30
2023-12-28T07:06:08.167Z,10.30
2023-12-28T07:08:36.583Z,10.30
2023-12-28T07:11:05.229Z,10.40
2023-12-28T07:13:33.045Z,10.40
2023-12-28T07:16:00.941Z,10.40
2023-12-28T07:18:29.650Z,10.40
2023-12-28T07:20:56.959Z,10.40
2023-12-28T07:23:23.960Z,10.40
2023-12-28T07:25:50.756Z,10.40
2023-12-28T07:28:17.609Z,10.40
2023-12-28T07:30:44.624Z,10.40
2023-12-28T07:33:11.800Z,10.50
2023-12-28T07:35:38.785Z,10.50
2023-12-28T07:38:05.621Z,10.50
2023-12-28T07:40:32.471Z,10.50
2023-12-28T07:42:59.351Z,10.50
2023-12-28T07:45:26.844Z,10.50
2023-12-28T07:47:54.261Z,10.50
2023-12-28T07:50:22.180Z,10.50
2023-12-28T07:52:50.694Z,10.60
2023-12-28T07:55:17.718Z,10.60
2023-12-28T07:57:45.119Z,10.60
2023-12-28T08:00:12.634Z,10.60
2023-12-28T08:02:39.737Z,10.60
2023-12-28T08:05:07.216Z,10.70
2023-12-28T08:07:34.325Z,10.60
2023-12-28T08:10:01.902Z,10.60
2023-12-28T08:12:29.449Z,10.60
2023-12-28T08:14:57.216Z,10.70
2023-12-28T08:17:24.830Z,10.60
2023-12-28T08:19:53.072Z,10.70
2023-12-28T08:22:20.421Z,10.70
2023-12-28T08:24:47.679Z,10.70
2023-12-28T08:27:14.717Z,10.70
2023-12-28T08:29:43.394Z,10.70
2023-12-28T08:32:12.043Z,10.70
2023-12-28T08:34:39.440Z,10.70
2023-12-28T08:37:06.549Z,10.70
2023-12-28T08:39:33.477Z,10.70
2023-12-28T08:42:00.293Z,10.70
2023-12-28T08:44:27.159Z,10.70
2023-12-28T08:46:55.017Z,10.70
2023-12-28T08:49:23.772Z,10.80
2023-12-28T08:51:51.679Z,10.70
2023-12-28T08:54:19.017Z,10.80
2023-12-28T08:56:50.453Z,10.80
2023-12-28T08:59:19.221Z,10.80
2023-12-28T09:01:46.160Z,10.80
2023-12-28T09:04:15.307Z,10.70
2023-12-28T09:06:42.483Z,10.80
2023-12-28T09:09:10.432Z,10.80
2023-12-28T09:11:37.353Z,10.80
2023-12-28T09:14:04.209Z,10.80
2023-12-28T09:16:31.092Z,10.80
2023-12-28T09:18:58.320Z,10.80
2023-12-28T09:21:26.743Z,10.80
2023-12-28T09:23:54.002Z,10.80
2023-12-28T09:26:20.875Z,10.90
2023-12-28T09:28:47.714Z,10.90
2023-12-28T09:31:14.763Z,10.80
2023-12-28T09:33:41.717Z,10.90
2023-12-28T09:36:10.211Z,10.90
2023-12-28T09:38:37.091Z,10.90
2023-12-28T09:41:17.296Z,10.90
2023-12-28T09:44:12.602Z,10.90
2023-12-28T09:46:43.620Z,10.90
2023-12-28T09:49:11.845Z,11.00
2023-12-28T09:51:41.053Z,11.00
2023-12-28T09:54:08.184Z,11.00
2023-12-28T09:56:36.203Z,11.00
2023-12-28T09:59:07.713Z,11.00
2023-12-28T10:01:36.694Z,11.00
2023-12-28T10:04:06.562Z,11.00
2023-12-28T10:06:33.608Z,11.10
2023-12-28T10:09:00.737Z,11.10
2023-12-28T10:11:27.786Z,11.10
2023-12-28T10:13:55.099Z,11.10
2023-12-28T10:16:22.129Z,11.10
2023-12-28T10:18:49.225Z,11.10
2023-12-28T10:21:16.212Z,11.10
2023-12-28T10:23:43.827Z,11.10
2023-12-28T10:26:11.411Z,11.10
2023-12-28T10:28:41.389Z,11.10
2023-12-28T10:31:09.435Z,11.10
2023-12-28T10:33:37.847Z,11.10
2023-12-28T10:36:09.968Z,11.10
2023-12-28T10:38:38.785Z,11.20
2023-12-28T10:41:08.249Z,11.20
2023-12-28T10:43:48.541Z,11.20
2023-12-28T10:46:30.959Z,11.20
2023-12-28T10:49:09.637Z,11.30
2023-12-28T10:51:40.703Z,11.30
2023-12-28T10:54:25.945Z,11.30
2023-12-28T10:57:02.544Z,11.30
2023-12-28T11:00:09.124Z,11.30
2023-12-28T11:02:57.286Z,11.40
2023-12-28T11:05:25.338Z,11.40
2023-12-28T11:07:57.568Z,11.40
2023-12-28T11:10:25.498Z,11.50
2023-12-28T11:12:54.495Z,11.50
2023-12-28T11:15:25.308Z,11.50
2023-12-28T11:17:52.466Z,11.50
2023-12-28T11:20:20.682Z,11.50
2023-12-28T11:22:48.909Z,11.50
2023-12-28T11:25:19.634Z,11.50
2023-12-28T11:27:47.755Z,11.50
2023-12-28T11:30:15.345Z,11.50
2023-12-28T11:32:46.604Z,11.50
2023-12-28T11:35:16.532Z,11.50
2023-12-28T11:37:50.095Z,11.50
2023-12-28T11:40:22.476Z,11.50
2023-12-28T11:42:54.728Z,11.50
2023-12-28T11:45:24.100Z,11.50
2023-12-28T11:48:02.276Z,11.60
2023-12-28T11:50:29.452Z,11.60
2023-12-28T11:52:56.356Z,11.60
2023-12-28T11:55:24.671Z,11.60
2023-12-28T11:57:51.766Z,11.60
2023-12-28T12:00:19.055Z,11.60
2023-12-28T12:02:48.796Z,11.70
2023-12-28T12:05:16.352Z,11.60
2023-12-28T12:07:43.225Z,11.70
2023-12-28T12:10:16.332Z,11.70
2023-12-28T12:12:43.782Z,11.70
2023-12-28T12:15:11.774Z,11.70
2023-12-28T12:17:39.637Z,11.70
2023-12-28T12:20:07.019Z,11.70
2023-12-28T12:22:34.177Z,11.70
2023-12-28T12:25:05.269Z,11.70
2023-12-28T12:27:32.756Z,11.80
2023-12-28T12:29:59.700Z,11.80
2023-12-28T12:32:27.751Z,11.80
2023-12-28T12:34:55.148Z,11.80
2023-12-28T12:37:22.559Z,11.80
2023-12-28T12:39:50.402Z,11.90
2023-12-28T12:42:21.442Z,11.90
2023-12-28T12:44:48.469Z,11.90
2023-12-28T12:47:15.403Z,11.90
2023-12-28T12:49:44.488Z,11.90
2023-12-28T12:52:11.709Z,11.90
2023-12-28T12:54:38.688Z,11.90
2023-12-28T12:57:06.514Z,11.90
2023-12-28T12:59:33.423Z,11.80
2023-12-28T13:02:01.967Z,11.90
2023-12-28T13:04:28.962Z,11.90
2023-12-28T13:06:55.870Z,11.80
2023-12-28T13:09:22.843Z,11.80
2023-12-28T13:11:51.586Z,11.90
2023-12-28T13:14:18.490Z,11.90
2023-12-28T13:16:45.388Z,11.90
2023-12-28T13:19:12.255Z,11.90
2023-12-28T13:21:39.184Z,11.90
2023-12-28T13:24:06.719Z,11.90
2023-12-28T13:26:34.465Z,11.90
2023-12-28T13:29:03.874Z,11.90
2023-12-28T13:31:32.241Z,11.90
2023-12-28T13:33:59.920Z,11.90
2023-12-28T13:36:29.492Z,11.90
2023-12-28T13:38:56.409Z,11.90
2023-12-28T13:41:23.543Z,11.90
2023-12-28T13:43:50.443Z,11.90
2023-12-28T13:46:17.261Z,11.90
2023-12-28T13:48:44.389Z,11.90
2023-12-28T13:51:11.998Z,11.90
2023-12-28T13:53:42.168Z,11.90
2023-12-28T13:56:12.384Z,11.80
2023-12-28T13:58:39.285Z,11.90
2023-12-28T14:01:06.459Z,11.80
2023-12-28T14:03:33.563Z,11.80
2023-12-28T14:06:01.085Z,11.80
2023-12-28T14:08:28.003Z,11.80
2023-12-28T14:10:54.822Z,11.80
2023-12-28T14:13:22.012Z,11.80
2023-12-28T14:15:49.389Z,11.80
2023-12-28T14:18:16.475Z,11.80
2023-12-28T14:20:43.336Z,11.80
2023-12-28T14:23:10.443Z,11.80
2023-12-28T14:25:38.309Z,11.80
2023-12-28T14:28:06.075Z,11.80
2023-12-28T14:30:33.472Z,11.80
2023-12-28T14:33:01.057Z,11.70
2023-12-28T14:35:29.414Z,11.70
2023-12-28T14:37:56.299Z,11.70
2023-12-28T14:40:23.446Z,11.70
2023-12-28T14:42:50.285Z,11.70
2023-12-28T14:45:17.208Z,11.70
2023-12-28T14:47:44.155Z,11.70
2023-12-28T14:50:11.108Z,11.70
2023-12-28T14:52:43.481Z,11.70
2023-12-28T14:55:10.871Z,11.70
2023-12-28T14:57:38.002Z,11.60
2023-12-28T15:00:06.648Z,11.60
2023-12-28T15:02:34.451Z,11.60
2023-12-28T15:05:01.992Z,11.60
2023-12-28T15:07:29.207Z,11.60
2023-12-28T15:09:57.758Z,11.50
2023-12-28T15:12:24.973Z,11.50
2023-12-28T15:14:52.143Z,11.50
2023-12-28T15:17:19.224Z,11.50
2023-12-28T15:19:46.410Z,11.50
2023-12-28T15:22:13.624Z,11.40
2023-12-28T15:24:41.039Z,11.40
2023-12-28T15:27:08.457Z,11.40
2023-12-28T15:29:35.475Z,11.40
2023-12-28T15:32:02.302Z,11.40
2023-12-28T15:34:29.211Z,11.40
2023-12-28T15:36:56.374Z,11.40
2023-12-28T15:39:25.022Z,11.40
2023-12-28T15:41:51.945Z,11.40
2023-12-28T15:44:18.787Z,11.40
2023-12-28T15:46:45.597Z,11.30
2023-12-28T15:49:12.584Z,11.30
2023-12-28T15:51:39.510Z,11.30
2023-12-28T15:54:06.500Z,11.30
2023-12-28T15:56:33.505Z,11.40
2023-12-28T15:59:00.327Z,11.30
2023-12-28T16:01:27.215Z,11.30
2023-12-28T16:03:54.406Z,11.30
2023-12-28T16:06:21.292Z,11.30
2023-12-28T16:08:48.993Z,11.30
2023-12-28T16:11:15.919Z,11.30
2023-12-28T16:13:44.612Z,11.30
2023-12-28T16:16:13.085Z,11.30
2023-12-28T16:18:40.954Z,11.30
2023-12-28T16:21:09.444Z,11.30
2023-12-28T16:23:36.729Z,11.30
2023-12-28T16:26:03.771Z,11.30
2023-12-28T16:28:31.039Z,11.20
2023-12-28T16:30:57.943Z,11.20
2023-12-28T16:33:25.123Z,11.20
2023-12-28T16:35:52.108Z,11.20
2023-12-28T16:38:19.123Z,11.20
2023-12-28T16:40:46.032Z,11.10
2023-12-28T16:43:14.402Z,11.10
2023-12-28T16:45:41.766Z,11.10
2023-12-28T16:48:08.992Z,11.10
2023-12-28T16:50:39.779Z,11.00
2023-12-28T16:53:06.810Z,11.00
2023-12-28T16:55:33.765Z,11.00
2023-12-28T16:58:01.419Z,11.00
2023-12-28T17:00:28.749Z,11.00
2023-12-28T17:02:55.686Z,11.00
2023-12-28T17:05:27.503Z,11.00
2023-12-28T17:07:54.832Z,11.00
2023-12-28T17:10:22.110Z,10.90
2023-12-28T17:12:50.156Z,10.90
2023-12-28T17:15:17.864Z,10.90
2023-12-28T17:17:46.007Z,10.90
2023-12-28T17:20:14.210Z,10.90
2023-12-28T17:22:51.459Z,10.90
2023-12-28T17:25:32.860Z,10.90
2023-12-28T17:28:06.221Z,10.90
2023-12-28T17:30:36.847Z,10.90
2023-12-28T17:33:04.767Z,10.90
2023-12-28T17:35:32.053Z,10.90
2023-12-28T17:38:00.704Z,10.90
2023-12-28T17:40:28.188Z,10.90
2023-12-28T17:42:58.765Z,10.90
2023-12-28T17:45:43.473Z,10.90
2023-12-28T17:48:18.453Z,10.90
2023-12-28T17:50:46.147Z,10.90
2023-12-28T17:53:13.559Z,10.90
2023-12-28T17:55:41.565Z,10.80
2023-12-28T17:58:08.807Z,10.90
2023-12-28T18:00:38.856Z,10.90
2023-12-28T18:03:06.156Z,10.90
2023-12-28T18:05:33.067Z,10.90
2023-12-28T18:08:00.193Z,10.90
2023-12-28T18:10:28.377Z,10.80
2023-12-28T18:12:55.544Z,10.90
2023-12-28T18:15:22.690Z,10.80
2023-12-28T18:17:49.933Z,10.80
2023-12-28T18:20:16.878Z,10.80
2023-12-28T18:22:43.766Z,10.80
2023-12-28T18:25:10.810Z,10.80
2023-12-28T18:27:37.725Z,10.80
2023-12-28T18:30:05.354Z,10.80
2023-12-28T18:32:32.302Z,10.80
2023-12-28T18:34:59.229Z,10.80
2023-12-28T18:37:26.087Z,10.80
2023-12-28T18:39:53.077Z,10.80
2023-12-28T18:42:21.391Z,10.80
2023-12-28T18:44:48.221Z,10.80
2023-12-28T18:47:15.090Z,10.80
2023-12-28T18:49:41.965Z,10.80
2023-12-28T18:52:09.066Z,10.80
2023-12-28T18:54:35.992Z,10.70
2023-12-28T18:57:03.494Z,10.80
2023-12-28T18:59:30.330Z,10.80
2023-12-28T19:01:57.293Z,10.80
2023-12-28T19:04:24.404Z,10.80
2023-12-28T19:06:51.395Z,10.80
2023-12-28T19:09:18.457Z,10.80
2023-12-28T19:11:45.563Z,10.80
2023-12-28T19:14:12.447Z,10.80
2023-12-28T19:16:39.427Z,10.80
2023-12-28T19:19:06.853Z,10.70
2023-12-28T19:21:34.538Z,10.80
2023-12-28T19:24:01.514Z,10.70
2023-12-28T19:26:28.446Z,10.70
2023-12-28T19:28:55.579Z,10.80
2023-12-28T19:31:23.956Z,10.70
2023-12-28T19:33:51.556Z,10.70
2023-12-28T19:36:18.682Z,10.70
2023-12-28T19:38:45.631Z,10.70
2023-12-28T19:41:13.505Z,10.80
2023-12-28T19:43:42.551Z,10.70
2023-12-28T19:46:09.533Z,10.70
2023-12-28T19:48:37.073Z,10.70
2023-12-28T19:51:04.316Z,10.70
2023-12-28T19:53:31.163Z,10.70
2023-12-28T19:56:02.781Z,10.70
2023-12-28T19:58:31.109Z,10.70
2023-12-28T20:00:58.626Z,10.60
2023-12-28T20:03:25.763Z,10.60
2023-12-28T20:05:54.260Z,10.70
2023-12-28T20:08:21.325Z,10.70
2023-12-28T20:10:48.341Z,10.70
2023-12-28T20:13:15.320Z,10.60
2023-12-28T20:15:44.271Z,10.60
2023-12-28T20:18:11.726Z,10.70
2023-12-28T20:20:38.893Z,10.70
2023-12-28T20:23:06.286Z,10.70
2023-12-28T20:25:34.289Z,10.70
2023-12-28T20:28:03.103Z,10.70
2023-12-28T20:30:31.469Z,10.70
2023-12-28T20:32:58.839Z,10.80
2023-12-28T20:35:25.717Z,10.80
2023-12-28T20:37:52.590Z,10.80
2023-12-28T20:40:19.410Z,10.80
2023-12-28T20:42:46.356Z,10.80
2023-12-28T20:45:13.327Z,10.70
2023-12-28T20:47:40.270Z,10.80
2023-12-28T20:50:10.803Z,10.70
2023-12-28T20:52:39.089Z,10.70
2023-12-28T20:55:06.516Z,10.70
2023-12-28T20:57:33.732Z,10.70
2023-12-28T21:00:01.093Z,10.70
2023-12-28T21:02:28.027Z,10.70
2023-12-28T21:04:55.030Z,10.60
2023-12-28T21:07:22.247Z,10.60
2023-12-28T21:09:49.217Z,10.60
2023-12-28T21:12:25.260Z,10.60
2023-12-28T21:14:52.420Z,10.50
2023-12-28T21:17:19.555Z,10.50
2023-12-28T21:19:48.257Z,10.50
2023-12-28T21:22:16.431Z,10.50
2023-12-28T21:24:43.719Z,10.50
2023-12-28T21:27:11.014Z,10.50
2023-12-28T21:29:39.747Z,10.50
2023-12-28T21:32:07.824Z,10.50
2023-12-28T21:34:35.216Z,10.50
2023-12-28T21:37:02.258Z,10.50
2023-12-28T21:39:29.393Z,10.50
2023-12-28T21:41:56.361Z,10.50
2023-12-28T21:44:23.318Z,10.50
2023-12-28T21:46:50.169Z,10.50
2023-12-28T21:49:17.253Z,10.50
2023-12-28T21:51:45.344Z,10.60
2023-12-28T21:54:12.268Z,10.50
2023-12-28T21:56:40.559Z,10.60
2023-12-28T21:59:07.729Z,10.60
2023-12-28T22:01:34.839Z,10.50
2023-12-28T22:04:02.034Z,10.60
2023-12-28T22:06:29.071Z,10.60
2023-12-28T22:08:56.268Z,10.60
2023-12-28T22:11:23.501Z,10.60
2023-12-28T22:13:50.501Z,10.60
2023-12-28T22:16:17.460Z,10.70
2023-12-28T22:18:45.805Z,10.70
2023-12-28T22:21:12.923Z,10.70
2023-12-28T22:23:39.825Z,10.70
2023-12-28T22:26:06.700Z,10.70
2023-12-28T22:28:33.613Z,10.70
2023-12-28T22:31:00.809Z,10.70
2023-12-28T22:33:27.921Z,10.70
2023-12-28T22:35:54.976Z,10.70
2023-12-28T22:38:21.967Z,10.70
2023-12-28T22:40:49.252Z,10.70
2023-12-28T22:43:16.393Z,10.70
2023-12-28T22:45:43.424Z,10.70
2023-12-28T22:48:10.382Z,10.80
2023-12-28T22:50:37.544Z,10.80
2023-12-28T22:53:05.273Z,10.80
2023-12-28T22:55:32.245Z,10.80
2023-12-28T22:57:59.976Z,10.80
2023-12-28T23:00:37.221Z,10.80
2023-12-28T23:03:06.742Z,10.80
2023-12-28T23:05:34.429Z,10.80
2023-12-28T23:08:02.782Z,10.80
2023-12-28T23:10:29.943Z,10.80
2023-12-28T23:13:02.005Z,10.80
2023-12-28T23:15:30.913Z,10.80
2023-12-28T23:17:58.854Z,10.90
2023-12-28T23:20:26.444Z,10.80
2023-12-28T23:22:53.778Z,10.90
2023-12-28T23:25:22.034Z,10.90
2023-12-28T23:27:49.643Z,10.90
2023-12-28T23:30:18.096Z,10.90
2023-12-28T23:32:45.781Z,10.90
2023-12-28T23:35:13.082Z,10.90
2023-12-28T23:37:40.081Z,10.90
2023-12-28T23:40:07.890Z,10.90
2023-12-28T23:42:36.610Z,10.90
2023-12-28T23:45:05.689Z,10.90
2023-12-28T23:47:32.626Z,10.90
2023-12-28T23:49:59.644Z,10.90
2023-12-28T23:52:26.601Z,10.90
2023-12-28T23:54:53.481Z,11.00
2023-12-28T23:57:20.457Z,11.00
2023-12-28T23:59:47.395Z,10.90
